sensor_id;sensor_type;location;lat;lon;timestamp;temperature;humidity
17489;DHT22;8861;52.644;4.734;2022-08-03T00:01:09;20.30;99.90
17489;DHT22;8861;52.644;4.734;2022-08-03T00:03:36;20.20;99.90
17489;DHT22;8861;52.644;4.734;2022-08-03T00:06:03;20.20;99.90
17489;DHT22;8861;52.644;4.734;2022-08-03T00:08:30;20.30;99.90
17489;DHT22;8861;52.644;4.734;2022-08-03T00:10:57;20.20;99.90
17489;DHT22;8861;52.644;4.734;2022-08-03T00:13:24;20.20;99.90
17489;DHT22;8861;52.644;4.734;2022-08-03T00:15:52;20.20;99.90
17489;DHT22;8861;52.644;4.734;2022-08-03T00:18:20;20.20;99.90
17489;DHT22;8861;52.644;4.734;2022-08-03T00:20:47;20.20;99.90
17489;DHT22;8861;52.644;4.734;2022-08-03T00:23:15;20.20;99.90
17489;DHT22;8861;52.644;4.734;2022-08-03T00:25:42;20.20;99.90
17489;DHT22;8861;52.644;4.734;2022-08-03T00:28:09;20.20;99.90
17489;DHT22;8861;52.644;4.734;2022-08-03T00:30:36;20.20;99.90
17489;DHT22;8861;52.644;4.734;2022-08-03T00:33:03;20.20;99.90
17489;DHT22;8861;52.644;4.734;2022-08-03T00:35:32;20.20;99.90
17489;DHT22;8861;52.644;4.734;2022-08-03T00:38:02;20.20;99.90
17489;DHT22;8861;52.644;4.734;2022-08-03T00:40:29;20.10;99.90
17489;DHT22;8861;52.644;4.734;2022-08-03T00:42:57;20.10;99.90
17489;DHT22;8861;52.644;4.734;2022-08-03T00:45:25;20.20;99.90
17489;DHT22;8861;52.644;4.734;2022-08-03T00:47:56;20.20;99.90
17489;DHT22;8861;52.644;4.734;2022-08-03T00:50:26;20.20;99.90
17489;DHT22;8861;52.644;4.734;2022-08-03T00:52:55;20.20;99.90
17489;DHT22;8861;52.644;4.734;2022-08-03T00:55:23;20.20;99.90
17489;DHT22;8861;52.644;4.734;2022-08-03T00:57:51;20.20;99.90
17489;DHT22;8861;52.644;4.734;2022-08-03T01:00:19;20.10;99.90
17489;DHT22;8861;52.644;4.734;2022-08-03T01:02:47;20.10;99.90
17489;DHT22;8861;52.644;4.734;2022-08-03T01:05:14;20.10;99.90
17489;DHT22;8861;52.644;4.734;2022-08-03T01:07:54;20.10;99.90
17489;DHT22;8861;52.644;4.734;2022-08-03T01:10:31;20.10;99.90
17489;DHT22;8861;52.644;4.734;2022-08-03T01:13:03;20.00;99.90
17489;DHT22;8861;52.644;4.734;2022-08-03T01:15:39;20.00;99.90
17489;DHT22;8861;52.644;4.734;2022-08-03T01:18:12;20.00;99.90
17489;DHT22;8861;52.644;4.734;2022-08-03T01:20:43;20.00;99.90
17489;DHT22;8861;52.644;4.734;2022-08-03T01:23:38;20.00;99.90
17489;DHT22;8861;52.644;4.734;2022-08-03T01:29:49;20.00;99.90
17489;DHT22;8861;52.644;4.734;2022-08-03T01:32:20;20.00;99.90
17489;DHT22;8861;52.644;4.734;2022-08-03T01:34:51;19.90;99.90
17489;DHT22;8861;52.644;4.734;2022-08-03T01:37:27;19.90;99.90
17489;DHT22;8861;52.644;4.734;2022-08-03T01:39:57;19.90;99.90
17489;DHT22;8861;52.644;4.734;2022-08-03T01:42:27;19.90;99.90
17489;DHT22;8861;52.644;4.734;2022-08-03T01:44:56;19.90;99.90
17489;DHT22;8861;52.644;4.734;2022-08-03T01:47:25;19.90;99.90
17489;DHT22;8861;52.644;4.734;2022-08-03T01:49:55;19.90;99.90
17489;DHT22;8861;52.644;4.734;2022-08-03T01:52:24;19.90;99.90
17489;DHT22;8861;52.644;4.734;2022-08-03T01:54:52;19.90;99.90
17489;DHT22;8861;52.644;4.734;2022-08-03T01:57:21;19.90;99.90
17489;DHT22;8861;52.644;4.734;2022-08-03T01:59:50;19.90;99.90
17489;DHT22;8861;52.644;4.734;2022-08-03T02:02:20;19.80;99.90
17489;DHT22;8861;52.644;4.734;2022-08-03T02:04:48;19.80;99.90
17489;DHT22;8861;52.644;4.734;2022-08-03T02:07:16;19.80;99.90
17489;DHT22;8861;52.644;4.734;2022-08-03T02:09:45;19.80;99.90
17489;DHT22;8861;52.644;4.734;2022-08-03T02:12:14;19.80;99.90
17489;DHT22;8861;52.644;4.734;2022-08-03T02:14:43;19.80;99.90
17489;DHT22;8861;52.644;4.734;2022-08-03T02:17:11;19.80;99.90
17489;DHT22;8861;52.644;4.734;2022-08-03T02:19:41;19.80;99.90
17489;DHT22;8861;52.644;4.734;2022-08-03T02:22:10;19.80;99.90
17489;DHT22;8861;52.644;4.734;2022-08-03T02:24:38;19.70;99.90
17489;DHT22;8861;52.644;4.734;2022-08-03T02:27:11;19.70;99.90
17489;DHT22;8861;52.644;4.734;2022-08-03T02:29:41;19.70;99.90
17489;DHT22;8861;52.644;4.734;2022-08-03T02:32:12;19.70;99.90
17489;DHT22;8861;52.644;4.734;2022-08-03T02:34:45;19.70;99.90
17489;DHT22;8861;52.644;4.734;2022-08-03T02:37:14;19.70;99.90
17489;DHT22;8861;52.644;4.734;2022-08-03T02:39:42;19.70;99.90
17489;DHT22;8861;52.644;4.734;2022-08-03T02:42:11;19.70;99.90
17489;DHT22;8861;52.644;4.734;2022-08-03T02:44:39;19.70;99.90
17489;DHT22;8861;52.644;4.734;2022-08-03T02:47:12;19.60;99.90
17489;DHT22;8861;52.644;4.734;2022-08-03T02:49:42;19.60;99.90
17489;DHT22;8861;52.644;4.734;2022-08-03T02:52:12;19.60;99.90
17489;DHT22;8861;52.644;4.734;2022-08-03T02:54:40;19.60;99.90
17489;DHT22;8861;52.644;4.734;2022-08-03T02:57:09;19.60;99.90
17489;DHT22;8861;52.644;4.734;2022-08-03T02:59:38;19.60;99.90
17489;DHT22;8861;52.644;4.734;2022-08-03T03:02:06;19.60;99.90
17489;DHT22;8861;52.644;4.734;2022-08-03T03:04:34;19.60;99.90
17489;DHT22;8861;52.644;4.734;2022-08-03T03:07:02;19.60;99.90
17489;DHT22;8861;52.644;4.734;2022-08-03T03:09:31;19.50;99.90
17489;DHT22;8861;52.644;4.734;2022-08-03T03:11:58;19.50;99.90
17489;DHT22;8861;52.644;4.734;2022-08-03T03:14:26;19.50;99.90
17489;DHT22;8861;52.644;4.734;2022-08-03T03:16:54;19.50;99.90
17489;DHT22;8861;52.644;4.734;2022-08-03T03:19:22;19.50;99.90
17489;DHT22;8861;52.644;4.734;2022-08-03T03:21:54;19.50;99.90
17489;DHT22;8861;52.644;4.734;2022-08-03T03:24:24;19.50;99.90
17489;DHT22;8861;52.644;4.734;2022-08-03T03:26:52;19.50;99.90
17489;DHT22;8861;52.644;4.734;2022-08-03T03:29:20;19.40;99.90
17489;DHT22;8861;52.644;4.734;2022-08-03T03:31:47;19.50;99.90
17489;DHT22;8861;52.644;4.734;2022-08-03T03:34:15;19.50;99.90
17489;DHT22;8861;52.644;4.734;2022-08-03T03:36:43;19.50;99.90
17489;DHT22;8861;52.644;4.734;2022-08-03T03:39:11;19.50;99.90
17489;DHT22;8861;52.644;4.734;2022-08-03T03:41:40;19.40;99.90
17489;DHT22;8861;52.644;4.734;2022-08-03T03:44:07;19.50;99.90
17489;DHT22;8861;52.644;4.734;2022-08-03T03:46:34;19.50;99.90
17489;DHT22;8861;52.644;4.734;2022-08-03T03:49:01;19.40;99.90
17489;DHT22;8861;52.644;4.734;2022-08-03T03:51:28;19.40;99.90
17489;DHT22;8861;52.644;4.734;2022-08-03T03:53:55;19.40;99.90
17489;DHT22;8861;52.644;4.734;2022-08-03T03:56:23;19.40;99.90
17489;DHT22;8861;52.644;4.734;2022-08-03T03:58:51;19.50;99.90
17489;DHT22;8861;52.644;4.734;2022-08-03T04:01:19;19.40;99.90
17489;DHT22;8861;52.644;4.734;2022-08-03T04:03:46;19.40;99.90
17489;DHT22;8861;52.644;4.734;2022-08-03T04:06:16;19.40;99.90
17489;DHT22;8861;52.644;4.734;2022-08-03T04:09:01;19.50;99.90
17489;DHT22;8861;52.644;4.734;2022-08-03T04:11:49;19.50;99.90
17489;DHT22;8861;52.644;4.734;2022-08-03T04:14:21;19.50;99.90
17489;DHT22;8861;52.644;4.734;2022-08-03T04:16:52;19.60;99.90
17489;DHT22;8861;52.644;4.734;2022-08-03T04:19:25;19.60;99.90
17489;DHT22;8861;52.644;4.734;2022-08-03T04:21:56;19.60;99.90
17489;DHT22;8861;52.644;4.734;2022-08-03T04:24:38;19.60;99.90
17489;DHT22;8861;52.644;4.734;2022-08-03T04:27:07;19.60;99.90
17489;DHT22;8861;52.644;4.734;2022-08-03T04:29:40;19.60;99.90
17489;DHT22;8861;52.644;4.734;2022-08-03T04:32:08;19.70;99.90
17489;DHT22;8861;52.644;4.734;2022-08-03T04:34:35;19.70;99.90
17489;DHT22;8861;52.644;4.734;2022-08-03T04:37:09;19.80;99.90
17489;DHT22;8861;52.644;4.734;2022-08-03T04:39:38;19.80;99.90
17489;DHT22;8861;52.644;4.734;2022-08-03T04:42:10;19.90;99.90
17489;DHT22;8861;52.644;4.734;2022-08-03T04:44:41;19.90;99.90
17489;DHT22;8861;52.644;4.734;2022-08-03T04:47:09;19.90;99.90
17489;DHT22;8861;52.644;4.734;2022-08-03T04:49:37;19.90;99.90
17489;DHT22;8861;52.644;4.734;2022-08-03T04:52:06;19.90;99.90
17489;DHT22;8861;52.644;4.734;2022-08-03T04:54:38;20.00;99.90
17489;DHT22;8861;52.644;4.734;2022-08-03T04:57:06;20.00;99.90
17489;DHT22;8861;52.644;4.734;2022-08-03T04:59:33;20.10;99.90
17489;DHT22;8861;52.644;4.734;2022-08-03T05:02:01;20.10;99.90
17489;DHT22;8861;52.644;4.734;2022-08-03T05:04:28;20.20;99.90
17489;DHT22;8861;52.644;4.734;2022-08-03T05:06:55;20.30;99.90
17489;DHT22;8861;52.644;4.734;2022-08-03T05:09:22;20.30;99.90
17489;DHT22;8861;52.644;4.734;2022-08-03T05:11:49;20.40;99.90
17489;DHT22;8861;52.644;4.734;2022-08-03T05:14:16;20.40;99.90
17489;DHT22;8861;52.644;4.734;2022-08-03T05:16:43;20.40;99.90
17489;DHT22;8861;52.644;4.734;2022-08-03T05:19:11;20.50;99.90
17489;DHT22;8861;52.644;4.734;2022-08-03T05:21:38;20.50;99.90
17489;DHT22;8861;52.644;4.734;2022-08-03T05:24:05;20.60;99.90
17489;DHT22;8861;52.644;4.734;2022-08-03T05:26:32;20.70;99.90
17489;DHT22;8861;52.644;4.734;2022-08-03T05:28:59;20.70;99.90
17489;DHT22;8861;52.644;4.734;2022-08-03T05:31:26;20.70;99.90
17489;DHT22;8861;52.644;4.734;2022-08-03T05:33:53;20.80;99.90
17489;DHT22;8861;52.644;4.734;2022-08-03T05:36:22;20.80;99.90
17489;DHT22;8861;52.644;4.734;2022-08-03T05:38:50;20.80;99.90
17489;DHT22;8861;52.644;4.734;2022-08-03T05:41:17;20.90;99.90
17489;DHT22;8861;52.644;4.734;2022-08-03T05:43:44;20.90;99.90
17489;DHT22;8861;52.644;4.734;2022-08-03T05:46:11;20.90;99.90
17489;DHT22;8861;52.644;4.734;2022-08-03T05:48:38;21.00;99.90
17489;DHT22;8861;52.644;4.734;2022-08-03T05:51:06;21.00;99.90
17489;DHT22;8861;52.644;4.734;2022-08-03T05:53:38;21.00;99.90
17489;DHT22;8861;52.644;4.734;2022-08-03T05:56:05;21.10;99.90
17489;DHT22;8861;52.644;4.734;2022-08-03T05:58:32;21.20;99.90
17489;DHT22;8861;52.644;4.734;2022-08-03T06:00:59;21.20;99.90
17489;DHT22;8861;52.644;4.734;2022-08-03T06:03:25;21.20;99.90
17489;DHT22;8861;52.644;4.734;2022-08-03T06:05:52;21.20;99.90
17489;DHT22;8861;52.644;4.734;2022-08-03T06:08:20;21.10;99.90
17489;DHT22;8861;52.644;4.734;2022-08-03T06:10:49;21.20;99.90
17489;DHT22;8861;52.644;4.734;2022-08-03T06:13:16;21.20;99.90
17489;DHT22;8861;52.644;4.734;2022-08-03T06:15:43;21.20;99.90
17489;DHT22;8861;52.644;4.734;2022-08-03T06:18:09;21.10;99.90
17489;DHT22;8861;52.644;4.734;2022-08-03T06:20:36;21.20;99.90
17489;DHT22;8861;52.644;4.734;2022-08-03T06:23:03;21.20;99.90
17489;DHT22;8861;52.644;4.734;2022-08-03T06:25:30;21.20;99.90
17489;DHT22;8861;52.644;4.734;2022-08-03T06:27:59;21.30;99.90
17489;DHT22;8861;52.644;4.734;2022-08-03T06:30:25;21.30;99.90
17489;DHT22;8861;52.644;4.734;2022-08-03T06:32:52;21.40;99.90
17489;DHT22;8861;52.644;4.734;2022-08-03T06:35:21;21.40;99.90
17489;DHT22;8861;52.644;4.734;2022-08-03T06:37:49;21.40;99.90
17489;DHT22;8861;52.644;4.734;2022-08-03T06:40:17;21.50;99.90
17489;DHT22;8861;52.644;4.734;2022-08-03T06:42:45;21.50;99.90
17489;DHT22;8861;52.644;4.734;2022-08-03T06:45:13;21.60;99.90
17489;DHT22;8861;52.644;4.734;2022-08-03T06:47:40;21.70;99.90
17489;DHT22;8861;52.644;4.734;2022-08-03T06:50:08;21.70;99.90
17489;DHT22;8861;52.644;4.734;2022-08-03T06:52:35;21.70;99.90
17489;DHT22;8861;52.644;4.734;2022-08-03T06:55:02;21.80;99.90
17489;DHT22;8861;52.644;4.734;2022-08-03T06:57:29;21.90;99.90
17489;DHT22;8861;52.644;4.734;2022-08-03T06:59:59;21.90;99.90
17489;DHT22;8861;52.644;4.734;2022-08-03T07:02:28;21.90;99.90
17489;DHT22;8861;52.644;4.734;2022-08-03T07:04:56;21.90;99.90
17489;DHT22;8861;52.644;4.734;2022-08-03T07:07:23;21.90;99.90
17489;DHT22;8861;52.644;4.734;2022-08-03T07:09:50;22.00;99.90
17489;DHT22;8861;52.644;4.734;2022-08-03T07:12:16;22.00;99.90
17489;DHT22;8861;52.644;4.734;2022-08-03T07:14:43;22.00;99.90
17489;DHT22;8861;52.644;4.734;2022-08-03T07:17:10;22.00;99.90
17489;DHT22;8861;52.644;4.734;2022-08-03T07:19:39;22.00;99.90
17489;DHT22;8861;52.644;4.734;2022-08-03T07:22:05;22.00;99.90
17489;DHT22;8861;52.644;4.734;2022-08-03T07:24:33;22.10;99.90
17489;DHT22;8861;52.644;4.734;2022-08-03T07:27:00;22.30;99.90
17489;DHT22;8861;52.644;4.734;2022-08-03T07:29:27;22.50;99.90
17489;DHT22;8861;52.644;4.734;2022-08-03T07:31:54;22.70;99.90
17489;DHT22;8861;52.644;4.734;2022-08-03T07:34:21;22.80;99.90
17489;DHT22;8861;52.644;4.734;2022-08-03T07:36:49;22.90;99.90
17489;DHT22;8861;52.644;4.734;2022-08-03T07:39:16;22.90;99.90
17489;DHT22;8861;52.644;4.734;2022-08-03T07:41:43;22.90;99.90
17489;DHT22;8861;52.644;4.734;2022-08-03T07:44:10;23.00;99.90
17489;DHT22;8861;52.644;4.734;2022-08-03T07:46:36;23.10;99.90
17489;DHT22;8861;52.644;4.734;2022-08-03T07:49:03;23.20;99.90
17489;DHT22;8861;52.644;4.734;2022-08-03T07:51:30;23.20;99.90
17489;DHT22;8861;52.644;4.734;2022-08-03T07:53:59;23.40;99.90
17489;DHT22;8861;52.644;4.734;2022-08-03T07:56:25;23.50;99.90
17489;DHT22;8861;52.644;4.734;2022-08-03T07:58:52;23.60;99.90
17489;DHT22;8861;52.644;4.734;2022-08-03T08:01:20;23.70;99.90
17489;DHT22;8861;52.644;4.734;2022-08-03T08:03:47;23.70;99.90
17489;DHT22;8861;52.644;4.734;2022-08-03T08:06:15;23.60;99.90
17489;DHT22;8861;52.644;4.734;2022-08-03T08:08:42;23.50;99.90
17489;DHT22;8861;52.644;4.734;2022-08-03T08:11:10;23.60;99.90
17489;DHT22;8861;52.644;4.734;2022-08-03T08:13:37;23.60;99.90
17489;DHT22;8861;52.644;4.734;2022-08-03T08:16:05;23.60;99.90
17489;DHT22;8861;52.644;4.734;2022-08-03T08:18:32;23.70;99.90
17489;DHT22;8861;52.644;4.734;2022-08-03T08:20:58;23.70;99.90
17489;DHT22;8861;52.644;4.734;2022-08-03T08:23:26;23.70;99.90
17489;DHT22;8861;52.644;4.734;2022-08-03T08:25:53;23.60;99.90
17489;DHT22;8861;52.644;4.734;2022-08-03T08:28:22;23.60;99.90
17489;DHT22;8861;52.644;4.734;2022-08-03T08:30:49;23.60;99.90
17489;DHT22;8861;52.644;4.734;2022-08-03T08:33:16;23.70;99.90
17489;DHT22;8861;52.644;4.734;2022-08-03T08:35:43;23.60;99.90
17489;DHT22;8861;52.644;4.734;2022-08-03T08:38:11;23.60;99.90
17489;DHT22;8861;52.644;4.734;2022-08-03T08:40:37;23.70;99.90
17489;DHT22;8861;52.644;4.734;2022-08-03T08:43:04;23.70;99.90
17489;DHT22;8861;52.644;4.734;2022-08-03T08:45:34;23.80;99.90
17489;DHT22;8861;52.644;4.734;2022-08-03T08:48:02;23.90;99.90
17489;DHT22;8861;52.644;4.734;2022-08-03T08:50:31;23.90;99.90
17489;DHT22;8861;52.644;4.734;2022-08-03T08:53:01;24.00;99.90
17489;DHT22;8861;52.644;4.734;2022-08-03T08:55:28;24.10;99.90
17489;DHT22;8861;52.644;4.734;2022-08-03T08:57:59;24.10;99.90
17489;DHT22;8861;52.644;4.734;2022-08-03T09:00:27;24.20;99.90
17489;DHT22;8861;52.644;4.734;2022-08-03T09:02:57;24.30;99.90
17489;DHT22;8861;52.644;4.734;2022-08-03T09:05:24;24.30;99.90
17489;DHT22;8861;52.644;4.734;2022-08-03T09:07:51;24.50;99.90
17489;DHT22;8861;52.644;4.734;2022-08-03T09:10:18;24.50;99.90
17489;DHT22;8861;52.644;4.734;2022-08-03T09:12:48;24.40;99.90
17489;DHT22;8861;52.644;4.734;2022-08-03T09:15:22;24.40;99.90
17489;DHT22;8861;52.644;4.734;2022-08-03T09:17:51;24.40;99.90
17489;DHT22;8861;52.644;4.734;2022-08-03T09:20:20;24.40;99.90
17489;DHT22;8861;52.644;4.734;2022-08-03T09:22:53;24.40;99.90
17489;DHT22;8861;52.644;4.734;2022-08-03T09:25:30;24.50;99.90
17489;DHT22;8861;52.644;4.734;2022-08-03T09:28:07;24.50;99.90
17489;DHT22;8861;52.644;4.734;2022-08-03T09:30:34;24.60;99.90
17489;DHT22;8861;52.644;4.734;2022-08-03T09:33:03;24.80;99.90
17489;DHT22;8861;52.644;4.734;2022-08-03T09:35:32;24.80;99.90
17489;DHT22;8861;52.644;4.734;2022-08-03T09:38:10;24.80;99.90
17489;DHT22;8861;52.644;4.734;2022-08-03T09:40:37;24.90;99.90
17489;DHT22;8861;52.644;4.734;2022-08-03T09:43:05;24.80;99.90
17489;DHT22;8861;52.644;4.734;2022-08-03T09:45:33;24.70;99.90
17489;DHT22;8861;52.644;4.734;2022-08-03T09:48:22;24.60;99.90
17489;DHT22;8861;52.644;4.734;2022-08-03T09:50:51;24.50;99.90
17489;DHT22;8861;52.644;4.734;2022-08-03T09:53:19;24.40;99.90
17489;DHT22;8861;52.644;4.734;2022-08-03T09:55:53;24.40;99.90
17489;DHT22;8861;52.644;4.734;2022-08-03T09:58:21;24.50;99.90
17489;DHT22;8861;52.644;4.734;2022-08-03T10:00:57;24.60;99.90
17489;DHT22;8861;52.644;4.734;2022-08-03T10:03:25;24.80;99.90
17489;DHT22;8861;52.644;4.734;2022-08-03T10:05:54;25.00;99.90
17489;DHT22;8861;52.644;4.734;2022-08-03T10:08:22;25.20;99.90
17489;DHT22;8861;52.644;4.734;2022-08-03T10:10:50;25.20;99.90
17489;DHT22;8861;52.644;4.734;2022-08-03T10:13:20;25.30;99.90
17489;DHT22;8861;52.644;4.734;2022-08-03T10:15:47;25.40;99.90
17489;DHT22;8861;52.644;4.734;2022-08-03T10:18:15;25.40;99.90
17489;DHT22;8861;52.644;4.734;2022-08-03T10:20:45;25.40;99.90
17489;DHT22;8861;52.644;4.734;2022-08-03T10:23:17;25.50;99.90
17489;DHT22;8861;52.644;4.734;2022-08-03T10:25:46;25.60;99.90
17489;DHT22;8861;52.644;4.734;2022-08-03T10:28:16;25.50;99.90
17489;DHT22;8861;52.644;4.734;2022-08-03T10:30:48;25.50;99.90
17489;DHT22;8861;52.644;4.734;2022-08-03T10:33:18;25.40;99.90
17489;DHT22;8861;52.644;4.734;2022-08-03T10:35:47;25.40;99.90
17489;DHT22;8861;52.644;4.734;2022-08-03T10:38:19;25.40;99.90
17489;DHT22;8861;52.644;4.734;2022-08-03T10:40:48;25.40;99.90
17489;DHT22;8861;52.644;4.734;2022-08-03T10:43:18;25.60;99.90
17489;DHT22;8861;52.644;4.734;2022-08-03T10:45:48;25.60;99.90
17489;DHT22;8861;52.644;4.734;2022-08-03T10:48:16;25.50;99.90
17489;DHT22;8861;52.644;4.734;2022-08-03T10:50:44;25.70;99.90
17489;DHT22;8861;52.644;4.734;2022-08-03T10:53:11;25.70;99.90
17489;DHT22;8861;52.644;4.734;2022-08-03T10:55:40;25.70;99.90
17489;DHT22;8861;52.644;4.734;2022-08-03T10:58:49;25.50;99.90
17489;DHT22;8861;52.644;4.734;2022-08-03T11:01:17;25.40;99.90
17489;DHT22;8861;52.644;4.734;2022-08-03T11:04:13;25.50;99.90
17489;DHT22;8861;52.644;4.734;2022-08-03T11:06:40;25.50;99.90
17489;DHT22;8861;52.644;4.734;2022-08-03T11:09:15;25.60;99.90
17489;DHT22;8861;52.644;4.734;2022-08-03T11:11:46;25.50;99.90
17489;DHT22;8861;52.644;4.734;2022-08-03T11:14:14;25.70;99.90
17489;DHT22;8861;52.644;4.734;2022-08-03T11:16:43;25.90;99.90
17489;DHT22;8861;52.644;4.734;2022-08-03T11:19:13;25.90;99.90
17489;DHT22;8861;52.644;4.734;2022-08-03T11:22:04;25.90;99.90
17489;DHT22;8861;52.644;4.734;2022-08-03T11:24:58;25.80;99.90
17489;DHT22;8861;52.644;4.734;2022-08-03T11:27:31;25.70;99.90
17489;DHT22;8861;52.644;4.734;2022-08-03T11:30:00;25.70;99.90
17489;DHT22;8861;52.644;4.734;2022-08-03T11:32:50;25.50;99.90
17489;DHT22;8861;52.644;4.734;2022-08-03T11:35:19;25.30;99.90
17489;DHT22;8861;52.644;4.734;2022-08-03T11:38:05;25.10;99.90
17489;DHT22;8861;52.644;4.734;2022-08-03T11:40:34;25.10;99.90
17489;DHT22;8861;52.644;4.734;2022-08-03T11:43:04;25.20;99.90
17489;DHT22;8861;52.644;4.734;2022-08-03T11:45:32;25.20;99.90
17489;DHT22;8861;52.644;4.734;2022-08-03T11:48:02;25.20;99.90
17489;DHT22;8861;52.644;4.734;2022-08-03T11:50:38;25.10;99.90
17489;DHT22;8861;52.644;4.734;2022-08-03T11:53:06;25.10;99.90
17489;DHT22;8861;52.644;4.734;2022-08-03T11:55:34;25.30;99.90
17489;DHT22;8861;52.644;4.734;2022-08-03T11:58:04;25.40;99.90
17489;DHT22;8861;52.644;4.734;2022-08-03T12:00:31;25.40;99.90
17489;DHT22;8861;52.644;4.734;2022-08-03T12:03:02;25.60;99.90
17489;DHT22;8861;52.644;4.734;2022-08-03T12:05:41;25.80;99.90
17489;DHT22;8861;52.644;4.734;2022-08-03T12:08:09;26.00;99.90
17489;DHT22;8861;52.644;4.734;2022-08-03T12:10:37;26.70;99.90
17489;DHT22;8861;52.644;4.734;2022-08-03T12:13:06;27.60;99.90
17489;DHT22;8861;52.644;4.734;2022-08-03T12:15:34;28.20;99.90
17489;DHT22;8861;52.644;4.734;2022-08-03T12:18:12;28.60;99.90
17489;DHT22;8861;52.644;4.734;2022-08-03T12:20:39;29.00;99.90
17489;DHT22;8861;52.644;4.734;2022-08-03T12:23:07;29.50;99.90
17489;DHT22;8861;52.644;4.734;2022-08-03T12:25:35;29.80;99.90
17489;DHT22;8861;52.644;4.734;2022-08-03T12:28:09;29.70;99.90
17489;DHT22;8861;52.644;4.734;2022-08-03T12:30:37;29.80;99.90
17489;DHT22;8861;52.644;4.734;2022-08-03T12:33:22;30.10;99.90
17489;DHT22;8861;52.644;4.734;2022-08-03T12:36:01;30.00;99.90
17489;DHT22;8861;52.644;4.734;2022-08-03T12:38:30;30.10;99.90
17489;DHT22;8861;52.644;4.734;2022-08-03T12:40:59;30.10;99.90
17489;DHT22;8861;52.644;4.734;2022-08-03T12:43:27;29.90;99.90
17489;DHT22;8861;52.644;4.734;2022-08-03T12:46:21;29.50;99.90
17489;DHT22;8861;52.644;4.734;2022-08-03T12:49:02;29.10;99.90
17489;DHT22;8861;52.644;4.734;2022-08-03T12:51:32;28.50;99.90
17489;DHT22;8861;52.644;4.734;2022-08-03T12:53:59;28.20;99.90
17489;DHT22;8861;52.644;4.734;2022-08-03T12:56:26;27.90;99.90
17489;DHT22;8861;52.644;4.734;2022-08-03T12:58:55;27.80;99.90
17489;DHT22;8861;52.644;4.734;2022-08-03T13:01:21;27.60;99.90
17489;DHT22;8861;52.644;4.734;2022-08-03T13:03:50;27.50;99.90
17489;DHT22;8861;52.644;4.734;2022-08-03T13:06:19;27.40;99.90
17489;DHT22;8861;52.644;4.734;2022-08-03T13:08:46;27.40;99.90
17489;DHT22;8861;52.644;4.734;2022-08-03T13:11:21;27.40;99.90
17489;DHT22;8861;52.644;4.734;2022-08-03T13:13:48;27.40;99.90
17489;DHT22;8861;52.644;4.734;2022-08-03T13:16:17;27.40;99.90
17489;DHT22;8861;52.644;4.734;2022-08-03T13:18:44;27.30;99.90
17489;DHT22;8861;52.644;4.734;2022-08-03T13:21:13;27.30;99.90
17489;DHT22;8861;52.644;4.734;2022-08-03T13:23:42;27.20;99.90
17489;DHT22;8861;52.644;4.734;2022-08-03T13:26:09;27.20;99.90
17489;DHT22;8861;52.644;4.734;2022-08-03T13:28:36;27.30;99.90
17489;DHT22;8861;52.644;4.734;2022-08-03T13:31:03;27.30;99.90
17489;DHT22;8861;52.644;4.734;2022-08-03T13:33:31;27.30;99.90
17489;DHT22;8861;52.644;4.734;2022-08-03T13:35:58;27.30;99.90
17489;DHT22;8861;52.644;4.734;2022-08-03T13:38:25;27.40;99.90
17489;DHT22;8861;52.644;4.734;2022-08-03T13:40:52;27.30;99.90
17489;DHT22;8861;52.644;4.734;2022-08-03T13:43:19;27.10;99.90
17489;DHT22;8861;52.644;4.734;2022-08-03T13:45:46;26.90;99.90
17489;DHT22;8861;52.644;4.734;2022-08-03T13:48:13;26.60;99.90
17489;DHT22;8861;52.644;4.734;2022-08-03T13:50:41;26.40;99.90
17489;DHT22;8861;52.644;4.734;2022-08-03T13:53:08;26.00;99.90
17489;DHT22;8861;52.644;4.734;2022-08-03T13:55:35;25.80;99.90
17489;DHT22;8861;52.644;4.734;2022-08-03T13:58:02;25.80;99.90
17489;DHT22;8861;52.644;4.734;2022-08-03T14:00:32;25.80;99.90
17489;DHT22;8861;52.644;4.734;2022-08-03T14:03:00;25.90;99.90
17489;DHT22;8861;52.644;4.734;2022-08-03T14:05:28;26.00;99.90
17489;DHT22;8861;52.644;4.734;2022-08-03T14:07:57;26.30;99.90
17489;DHT22;8861;52.644;4.734;2022-08-03T14:10:25;26.50;99.90
17489;DHT22;8861;52.644;4.734;2022-08-03T14:12:52;26.50;99.90
17489;DHT22;8861;52.644;4.734;2022-08-03T14:15:20;26.40;99.90
17489;DHT22;8861;52.644;4.734;2022-08-03T14:17:47;26.40;99.90
17489;DHT22;8861;52.644;4.734;2022-08-03T14:20:14;26.50;99.90
17489;DHT22;8861;52.644;4.734;2022-08-03T14:22:41;26.90;99.90
17489;DHT22;8861;52.644;4.734;2022-08-03T14:25:09;27.50;99.90
17489;DHT22;8861;52.644;4.734;2022-08-03T14:27:36;28.10;99.90
17489;DHT22;8861;52.644;4.734;2022-08-03T14:30:03;28.40;99.90
17489;DHT22;8861;52.644;4.734;2022-08-03T14:32:30;28.40;99.90
17489;DHT22;8861;52.644;4.734;2022-08-03T14:34:57;29.30;99.90
17489;DHT22;8861;52.644;4.734;2022-08-03T14:37:24;30.80;99.90
17489;DHT22;8861;52.644;4.734;2022-08-03T14:39:51;32.30;99.90
17489;DHT22;8861;52.644;4.734;2022-08-03T14:42:19;33.70;99.90
17489;DHT22;8861;52.644;4.734;2022-08-03T14:44:46;34.40;99.90
17489;DHT22;8861;52.644;4.734;2022-08-03T14:47:13;35.20;99.90
17489;DHT22;8861;52.644;4.734;2022-08-03T14:49:40;35.80;99.90
17489;DHT22;8861;52.644;4.734;2022-08-03T14:52:07;36.00;99.90
17489;DHT22;8861;52.644;4.734;2022-08-03T14:54:34;36.10;99.90
17489;DHT22;8861;52.644;4.734;2022-08-03T14:57:01;36.00;99.90
17489;DHT22;8861;52.644;4.734;2022-08-03T14:59:29;35.70;99.90
17489;DHT22;8861;52.644;4.734;2022-08-03T15:01:56;35.30;99.90
17489;DHT22;8861;52.644;4.734;2022-08-03T15:04:23;35.00;99.90
17489;DHT22;8861;52.644;4.734;2022-08-03T15:06:50;34.70;99.90
17489;DHT22;8861;52.644;4.734;2022-08-03T15:09:17;34.20;99.90
17489;DHT22;8861;52.644;4.734;2022-08-03T15:11:44;33.50;99.90
17489;DHT22;8861;52.644;4.734;2022-08-03T15:14:11;32.70;99.90
17489;DHT22;8861;52.644;4.734;2022-08-03T15:16:40;32.10;99.90
17489;DHT22;8861;52.644;4.734;2022-08-03T15:19:07;31.70;99.90
17489;DHT22;8861;52.644;4.734;2022-08-03T15:21:34;31.50;99.90
17489;DHT22;8861;52.644;4.734;2022-08-03T15:24:01;31.20;99.90
17489;DHT22;8861;52.644;4.734;2022-08-03T15:26:28;30.80;99.90
17489;DHT22;8861;52.644;4.734;2022-08-03T15:28:55;30.20;99.90
17489;DHT22;8861;52.644;4.734;2022-08-03T15:31:23;29.70;99.90
17489;DHT22;8861;52.644;4.734;2022-08-03T15:33:51;29.30;99.90
17489;DHT22;8861;52.644;4.734;2022-08-03T15:36:19;29.00;99.90
17489;DHT22;8861;52.644;4.734;2022-08-03T15:38:46;28.70;99.90
17489;DHT22;8861;52.644;4.734;2022-08-03T15:41:13;28.60;99.90
17489;DHT22;8861;52.644;4.734;2022-08-03T15:43:40;28.60;99.90
17489;DHT22;8861;52.644;4.734;2022-08-03T15:46:07;28.80;99.90
17489;DHT22;8861;52.644;4.734;2022-08-03T15:48:34;28.70;99.90
17489;DHT22;8861;52.644;4.734;2022-08-03T15:51:03;28.60;99.90
17489;DHT22;8861;52.644;4.734;2022-08-03T15:53:30;28.60;99.90
17489;DHT22;8861;52.644;4.734;2022-08-03T15:55:57;28.60;99.90
17489;DHT22;8861;52.644;4.734;2022-08-03T15:58:25;28.50;99.90
17489;DHT22;8861;52.644;4.734;2022-08-03T16:00:54;28.50;99.90